Portada
METAR-TAF:

METAR-TAF

Aeropuertos :

Prince Rupert, Columbia Británica, Canadá

Aeropuerto de Prince Rupert

latitud: 54-18N, longitud: 130-26W, altitud: 34 m

Observación

El informe se hizo hace 1 hora y 3 minutos, a las 22:00 UTC
Viento 7 kt del sureste
Temperatura 7°C
Humedad 61%
Presión 1006 hPa
Visibilidad: 14.5 km
Cielo despejado

METAR: CYPR 202200Z AUTO 13007KT 9SM CLR 07/M00 A2971 RMK SLP063

Hora: 15:03 (23:03 UTC)

Pronóstico

El informe se hizo hace 4 horas y 25 minutos, a las 18:38 UTC
Pronóstico válido del 20 a las 19 UTC al 21 a las 07 UTC
Viento 7 kt del este
Visibilidad: 10 km
Escasas nubes a una altura de 5000 ft
A partir de las 21 a las 0500 UTC
Viento 8 kt del este
Visibilidad: 10 km
Cielo nuboso a una altura de 4000 ft
Cielo cubierto a una altura de 8000 ft

TAF: CYPR 201838Z 2019/2107 10007KT P6SM FEW050 FM210500 10008KT P6SM BKN040 OVC080 RMK FCST BASED ON AUTO OBS. NXT FCST BY 210100Z

Observaciones y pronósticos meteorológicos de más de 4000 aeropuertos (mensajes METAR y TAF).

Los puntos amarillos y rojos representan las estaciones disponibles.

Ponga el ratón en el punto deseado para ver el nombre de la estación.

Haga clic para ver las observaciones y los pronósticos meteorológicos.

Para cambiar el mapa : haga clic en los botones verdes con una cruz de color negro para hacer un zoom, en el botón verde con un guión para alejar o en las flechas verdes para mapas adyacentes.


METAR-TAF: